地図

経路データ

SID SEASON NUMBER BASIN SUBBASIN NAME ISO_TIME NATURE LAT LON WMO_WIND WMO_PRES WMO_AGENCY TRACK_TYPE DIST2LAND LANDFALL IFLAG USA_AGENCY USA_ATCF_ID USA_LAT USA_LON USA_RECORD USA_STATUS USA_WIND USA_PRES USA_SSHS USA_R34_NE USA_R34_SE USA_R34_SW USA_R34_NW USA_R50_NE USA_R50_SE USA_R50_SW USA_R50_NW USA_R64_NE USA_R64_SE USA_R64_SW USA_R64_NW USA_POCI USA_ROCI USA_RMW USA_EYE TOKYO_LAT TOKYO_LON TOKYO_GRADE TOKYO_WIND TOKYO_PRES TOKYO_R50_DIR TOKYO_R50_LONG TOKYO_R50_SHORT TOKYO_R30_DIR TOKYO_R30_LONG TOKYO_R30_SHORT TOKYO_LAND CMA_LAT CMA_LON CMA_CAT CMA_WIND CMA_PRES HKO_LAT HKO_LON HKO_CAT HKO_WIND HKO_PRES NEWDELHI_LAT NEWDELHI_LON NEWDELHI_GRADE NEWDELHI_WIND NEWDELHI_PRES NEWDELHI_CI NEWDELHI_DP NEWDELHI_POCI REUNION_LAT REUNION_LON REUNION_TYPE REUNION_WIND REUNION_PRES REUNION_TNUM REUNION_CI REUNION_RMW REUNION_R34_NE REUNION_R34_SE REUNION_R34_SW REUNION_R34_NW REUNION_R50_NE REUNION_R50_SE REUNION_R50_SW REUNION_R50_NW REUNION_R64_NE REUNION_R64_SE REUNION_R64_SW REUNION_R64_NW BOM_LAT BOM_LON BOM_TYPE BOM_WIND BOM_PRES BOM_TNUM BOM_CI BOM_RMW BOM_R34_NE BOM_R34_SE BOM_R34_SW BOM_R34_NW BOM_R50_NE BOM_R50_SE BOM_R50_SW BOM_R50_NW BOM_R64_NE BOM_R64_SE BOM_R64_SW BOM_R64_NW BOM_ROCI BOM_POCI BOM_EYE BOM_POS_METHOD BOM_PRES_METHOD NADI_LAT NADI_LON NADI_CAT NADI_WIND NADI_PRES WELLINGTON_LAT WELLINGTON_LON WELLINGTON_WIND WELLINGTON_PRES DS824_LAT DS824_LON DS824_STAGE DS824_WIND DS824_PRES TD9636_LAT TD9636_LON TD9636_STAGE TD9636_WIND TD9636_PRES TD9635_LAT TD9635_LON TD9635_WIND TD9635_PRES TD9635_ROCI NEUMANN_LAT NEUMANN_LON NEUMANN_CLASS NEUMANN_WIND NEUMANN_PRES MLC_LAT MLC_LON MLC_CLASS MLC_WIND MLC_PRES USA_GUST BOM_GUST BOM_GUST_PER REUNION_GUST REUNION_GUST_PER USA_SEAHGT USA_SEARAD_NE USA_SEARAD_SE USA_SEARAD_SW USA_SEARAD_NW STORM_SPEED STORM_DIR
2014066S09138 2014 19 SP EA GILLIAN 2014-03-07 00:00:00 NR -9.30000 138.050 15 1004 bom main 100 100 O_____O_______ jtwc_sh SH172014 -9.60000 138.200 DB 15 1010 -3 1006 150 45 -9.00000 137.900 20 15 1004 3 45 45 8 114
2014066S09138 2014 19 SP EA GILLIAN 2014-03-07 03:00:00 NR -9.46012 138.416 main 123 123 P_____P_______ SH172014 -9.64010 138.530 DB 17 1008 -3 1006 150 45 -9.28015 138.302 20 17 1004 7 115
2014066S09138 2014 19 SP EA GILLIAN 2014-03-07 06:00:00 NR -9.60000 138.700 20 1004 bom main 136 136 O_____O_______ jtwc_sh SH172014 -9.70000 138.800 DB 20 1007 -3 1006 150 45 -9.50000 138.600 20 20 1004 1.00000 1.00000 3 45 45 5 120
2014066S09138 2014 19 SP EA GILLIAN 2014-03-07 09:00:00 NR -9.70744 138.851 main 152 152 P_____P_______ SH172014 -9.79245 138.973 DB 20 1007 -3 1006 150 45 -9.62243 138.730 20 22 1004 3 129
2014066S09138 2014 19 SP EA GILLIAN 2014-03-07 12:00:00 NR -9.80000 138.950 25 1004 bom main 166 166 O_____O_______ jtwc_sh SH172014 -9.90000 139.100 DB 20 1007 -3 1006 150 45 -9.70000 138.800 20 25 1004 1.50000 1.50000 3 45 45 3 128
2014066S09138 2014 19 SP EA GILLIAN 2014-03-07 15:00:00 NR -9.89625 139.100 main 179 179 P_____P_______ SH172014 -10.0000 139.258 DB 22 1005 -3 1006 150 45 -9.79250 138.943 20 25 1003 4 124
2014066S09138 2014 19 SP EA GILLIAN 2014-03-07 18:00:00 TS -10.0000 139.250 25 1003 bom main 193 193 O_____O_______ jtwc_sh SH172014 -10.1000 139.400 TD 25 1004 -1 1006 150 45 -9.90000 139.100 20 25 1003 1.50000 1.50000 3 45 45 3 127
2014066S09138 2014 19 SP EA GILLIAN 2014-03-07 21:00:00 TS -10.0987 139.371 main 196 196 P_____P_______ SH172014 -10.1775 139.500 TD 27 1002 -1 1006 150 45 -10.0200 139.243 20 25 1001 4 135
2014066S09138 2014 19 SP EA GILLIAN 2014-03-08 00:00:00 TS -10.2500 139.500 25 1000 bom main 197 197 O_____O_______ jtwc_sh SH172014 -10.3000 139.600 TD 30 1000 -1 1006 150 45 -10.2000 139.400 20 25 1000 2.00000 2.00000 50 3 45 45 5 144
2014066S09138 2014 19 SP EA GILLIAN 2014-03-08 03:00:00 TS -10.5063 139.679 main 211 211 P_____P_______ SH172014 -10.5200 139.750 TD 30 1000 -1 1005 155 45 -10.4925 139.607 20 27 1000 7 148
2014066S09138 2014 19 SP EA GILLIAN 2014-03-08 06:00:00 TS -10.8000 139.850 30 1000 bom main 222 222 O_____O_______ jtwc_sh SH172014 -10.8000 139.900 TD 30 1000 -1 1005 160 45 -10.8000 139.800 20 30 1000 1.50000 2.00000 3 45 45 6 152
2014066S09138 2014 19 SP EA GILLIAN 2014-03-08 09:00:00 TS -11.0537 139.973 main 222 210 P_____P_______ SH172014 -11.1000 140.022 TD 32 998 -1 1005 165 45 -11.0075 139.923 20 30 1000 5 158
2014066S09138 2014 19 SP EA GILLIAN 2014-03-08 12:00:00 TS -11.3000 140.050 30 1000 bom main 201 191 O_____O_______ jtwc_sh SH172014 -11.4000 140.100 TS 35 996 0 1006 170 45 -11.2000 140.000 20 30 1000 2.00000 2.00000 79 3 45 45 5 167
2014066S09138 2014 19 SP EA GILLIAN 2014-03-08 15:00:00 TS -11.5387 140.086 main 191 179 P_____P_______ SH172014 -11.6575 140.108 TS 35 996 0 1006 175 45 -11.4200 140.065 20 30 999 5 173
2014066S09138 2014 19 SP EA GILLIAN 2014-03-08 18:00:00 TS -11.8000 140.100 30 998 bom main 179 172 O_____O_______ jtwc_sh SH172014 -11.9000 140.100 TS 35 996 0 1006 180 45 -11.7000 140.100 20 30 998 2.50000 2.50000 3 45 45 6 176
2014066S09138 2014 19 SP EA GILLIAN 2014-03-08 21:00:00 TS -12.1512 140.118 main 169 164 P_____P_______ SH172014 -12.1725 140.135 TS 35 996 0 1006 180 45 -12.1300 140.100 20 30 999 7 175
2014066S09138 2014 19 SP EA GILLIAN 2014-03-09 00:00:00 TS -12.4500 140.150 30 1000 bom main 153 152 O_____O_______ jtwc_sh SH172014 -12.4000 140.200 TS 35 996 0 1006 180 45 -12.5000 140.100 20 30 1000 2.50000 2.50000 3 45 45 4 171
2014066S09138 2014 19 SP EA GILLIAN 2014-03-09 03:00:00 TS -12.5625 140.188 main 152 141 P_____P_______ SH172014 -12.5225 140.270 TS 35 996 0 1005 175 45 -12.6024 140.105 20 30 1000 2 136
2014066S09138 2014 19 SP EA GILLIAN 2014-03-09 06:00:00 TS -12.6000 140.300 30 1001 bom main 141 119 O_____O_______ jtwc_sh SH172014 -12.6000 140.400 TS 35 996 0 1005 170 45 -12.6000 140.200 20 30 1001 2.00000 2.50000 3 45 45 4 105
2014066S09138 2014 19 SP EA GILLIAN 2014-03-09 09:00:00 TS -12.6638 140.564 main 109 87 P_____P_______ SH172014 -12.6926 140.642 TS 32 998 -1 1005 165 47 -12.6351 140.485 20 27 1001 6 106
2014066S09138 2014 19 SP EA GILLIAN 2014-03-09 12:00:00 TS -12.7500 140.850 25 1002 bom main 76 66 O_____O_______ jtwc_sh SH172014 -12.8000 140.900 TD 30 1000 -1 1006 160 50 -12.7000 140.800 20 25 1002 1.50000 2.00000 3 45 45 5 116
2014066S09138 2014 19 SP EA GILLIAN 2014-03-09 15:00:00 TS -12.8801 141.027 main 66 54 P_____P_______ SH172014 -12.9275 141.080 TD 30 1000 -1 1006 160 50 -12.8327 140.974 20 22 1001 4 136
2014066S09138 2014 19 SP EA GILLIAN 2014-03-09 18:00:00 TS -13.0500 141.150 20 1001 bom main 43 39 O_____O_______ jtwc_sh SH172014 -13.1000 141.200 TD 30 1000 -1 1006 160 50 -13.0000 141.100 20 20 1001 1.50000 1.50000 3 45 45 4 148
2014066S09138 2014 19 SP EA GILLIAN 2014-03-09 21:00:00 TS -13.2511 141.259 main 39 32 P_____P_______ SH172014 -13.3425 141.273 TD 30 1000 -1 1006 170 50 -13.1597 141.246 20 20 1001 5 156
2014066S09138 2014 19 SP EA GILLIAN 2014-03-10 00:00:00 TS -13.4650 141.340 20 1002 bom main 32 21 O_____O_______ jtwc_sh SH172014 -13.6000 141.300 TD 30 1000 -1 1006 180 50 -13.3300 141.380 20 20 1002 2.00000 2.00000 3 45 45 4 162
2014066S09138 2014 19 SP EA GILLIAN 2014-03-10 03:00:00 TS -13.6624 141.402 main 21 15 P_____P_______ SH172014 -13.8000 141.300 TD 30 1000 -1 1006 185 45 -13.5247 141.503 20 20 1002 4 164
2014066S09138 2014 19 SP EA GILLIAN 2014-03-10 06:00:00 TS -13.8500 141.450 20 1002 bom main 10 0 O_____O_______ jtwc_sh SH172014 -14.0000 141.300 TD 30 1000 -1 1006 190 40 -13.7000 141.600 20 20 1002 1.50000 2.00000 3 45 45 4 166
2014066S09138 2014 19 SP EA GILLIAN 2014-03-10 09:00:00 TS -14.0201 141.497 main 10 10 P_____P_______ SH172014 -14.2425 141.335 TD 30 1000 -1 1007 190 35 -13.7977 141.659 20 20 1003 4 165
2014066S09138 2014 19 SP EA GILLIAN 2014-03-10 12:00:00 TS -14.2000 141.550 20 1004 bom main 0 0 O_____O_______ jtwc_sh SH172014 -14.5000 141.400 TD 30 1000 -1 1009 190 30 -13.9000 141.700 20 20 1004 1.00000 1.50000 3 45 45 4 162
2014066S09138 2014 19 SP EA GILLIAN 2014-03-10 15:00:00 TS -14.4400 141.632 main 0 0 P_____P_______ SH172014 -14.7650 141.507 TD 27 1002 -1 1008 190 35 -14.1150 141.757 20 17 1004 5 163
2014066S09138 2014 19 SP EA GILLIAN 2014-03-10 18:00:00 TS -14.6500 141.700 15 1004 bom main 0 0 O_____O_______ jtwc_sh SH172014 -15.0000 141.600 TD 25 1004 -1 1007 190 40 -14.3000 141.800 20 15 1004 3 45 45 3 166
2014066S09138 2014 19 SP EA GILLIAN 2014-03-10 21:00:00 TS -14.7475 141.715 main 0 0 P_____P_______ SH172014 -15.1575 141.615 TD 25 1004 -1 1008 190 40 -14.3375 141.815 20 15 1004 2 0
2014066S09138 2014 19 SP EA GILLIAN 2014-03-11 00:00:00 TS -14.8000 141.700 15 1005 bom main 0 0 O_____O_______ jtwc_sh SH172014 -15.3000 141.600 TD 25 1004 -1 1009 190 40 -14.3000 141.800 20 15 1005 3 45 45 1 188
2014066S09138 2014 19 SP EA GILLIAN 2014-03-11 03:00:00 TS -14.8712 141.686 main 0 0 P_____P_______ SH172014 -15.4925 141.607 TD 22 1005 -1 1009 190 40 -14.2500 141.765 20 15 1004 2 192
2014066S09138 2014 19 SP EA GILLIAN 2014-03-11 06:00:00 NR -14.9500 141.650 15 1003 bom main 0 10 O_____O_______ jtwc_sh SH172014 -15.7000 141.600 DB 20 1007 -3 1009 190 40 -14.2000 141.700 20 15 1003 3 45 45 2 208
2014066S09138 2014 19 SP EA GILLIAN 2014-03-11 09:00:00 NR -15.0500 141.590 main 10 10 P_____P_______ SH172014 -15.9300 141.580 DB 20 1007 -3 1008 185 42 -14.1700 141.600 20 15 1004 2 216
2014066S09138 2014 19 SP EA GILLIAN 2014-03-11 12:00:00 NR -15.1500 141.500 15 1005 bom main 21 15 O_____O_______ jtwc_sh SH172014 -16.1000 141.500 DB 20 1007 -3 1008 180 45 -14.2000 141.500 20 15 1005 3 45 45 3 225
2014066S09138 2014 19 SP EA GILLIAN 2014-03-11 15:00:00 NR -15.2325 141.397 main 24 21 P_____P_______ SH172014 -16.1375 141.330 DB 20 1005 -3 1008 180 45 -14.3275 141.465 20 15 1005 3 238
2014066S09138 2014 19 SP EA GILLIAN 2014-03-11 18:00:00 NR -15.3000 141.250 15 1006 bom main 31 31 O_____O_______ jtwc_sh SH172014 -16.1000 141.100 DB 20 1003 -3 1008 180 45 -14.5000 141.400 20 15 1006 3 45 45 3 248
2014066S09138 2014 19 SP EA GILLIAN 2014-03-11 21:00:00 NR -15.3612 141.066 main 44 44 P_____P_______ SH172014 -16.0650 140.865 DB 17 1006 -3 1008 180 45 -14.6573 141.267 20 15 1007 4 257
2014066S09138 2014 19 SP EA GILLIAN 2014-03-12 00:00:00 NR -15.4000 140.800 15 1008 bom main 75 75 O_____O_______ jtwc_sh SH172014 -16.0000 140.600 DB 15 1010 -3 1008 180 45 -14.8000 141.000 20 15 1008 3 45 45 6 265
2014066S09138 2014 19 SP EA GILLIAN 2014-03-12 03:00:00 NR -15.4150 140.430 main 118 118 P_____P_______ SH172014 -15.9075 140.315 DB 15 1010 -3 1008 180 45 -14.9226 140.545 20 15 1006 8 270
2014066S09138 2014 19 SP EA GILLIAN 2014-03-12 06:00:00 NR -15.4000 140.000 15 1005 bom main 160 160 O_____O_______ jtwc_sh SH172014 -15.8000 140.000 DB 15 1010 -3 1008 180 45 -15.0000 140.000 20 15 1005 3 45 45 8 273
2014066S09138 2014 19 SP EA GILLIAN 2014-03-12 09:00:00 NR -15.3725 139.560 main 179 173 P_____P_______ SH172014 -15.7150 139.658 DB 15 1010 -3 1008 180 45 -15.0301 139.462 20 15 1005 8 277
2014066S09138 2014 19 SP EA GILLIAN 2014-03-12 12:00:00 NR -15.3000 139.150 15 1006 bom main 179 162 O_____O_______ jtwc_sh SH172014 -15.6000 139.300 DB 15 1010 -3 1008 180 45 -15.0000 139.000 20 15 1006 3 45 45 7 286
2014066S09138 2014 19 SP EA GILLIAN 2014-03-12 15:00:00 NR -15.1612 138.816 main 162 156 P_____P_______ SH172014 -15.4076 138.920 DB 17 1008 -3 1008 180 45 -14.9148 138.712 20 15 1006 7 297
2014066S09138 2014 19 SP EA GILLIAN 2014-03-12 18:00:00 NR -15.0000 138.550 15 1006 bom main 165 155 O_____O_______ jtwc_sh SH172014 -15.2000 138.600 DB 20 1007 -3 1008 180 45 -14.8000 138.500 20 15 1006 3 45 45 6 300
2014066S09138 2014 19 SP EA GILLIAN 2014-03-12 21:00:00 NR -14.8637 138.290 main 155 140 P_____P_______ SH172014 -15.0349 138.383 DB 20 1007 -3 1008 180 45 -14.6926 138.197 20 15 1006 5 303
2014066S09138 2014 19 SP EA GILLIAN 2014-03-13 00:00:00 NR -14.7500 138.150 15 1007 bom main 136 126 O_____O_______ jtwc_sh SH172014 -14.9000 138.300 DB 20 1007 -3 1008 180 45 -14.6000 138.000 20 15 1007 1.50000 1.50000 3 45 45 2 335
2014066S09138 2014 19 SP EA GILLIAN 2014-03-13 03:00:00 NR -14.6675 138.201 main 136 133 P_____P_______ SH172014 -14.7925 138.363 DB 22 1005 -3 1007 175 37 -14.5425 138.040 20 17 1005 2 52
2014066S09138 2014 19 SP EA GILLIAN 2014-03-13 06:00:00 TS -14.6000 138.350 20 1004 bom main 154 152 O_____O_______ jtwc_sh SH172014 -14.7000 138.500 TD 25 1004 -1 1007 170 30 -14.5000 138.200 20 20 1004 2.00000 2.00000 3 45 45 3 60
2014066S09138 2014 19 SP EA GILLIAN 2014-03-13 09:00:00 TS -14.5250 138.456 main 163 163 P_____P_______ SH172014 -14.6000 138.577 TD 25 1004 -1 1008 170 30 -14.4500 138.335 20 20 1005 3 58
2014066S09138 2014 19 SP EA GILLIAN 2014-03-13 12:00:00 TS -14.4500 138.600 20 1006 bom main 172 172 O_____O_______ jtwc_sh SH172014 -14.5000 138.700 TD 25 1004 -1 1009 170 30 -14.4000 138.500 20 20 1006 2.00000 2.00000 3 45 45 4 69
2014066S09138 2014 19 SP EA GILLIAN 2014-03-13 15:00:00 TS -14.3900 138.814 main 194 194 P_____P_______ SH172014 -14.4151 138.942 TD 25 1004 -1 1009 170 30 -14.3650 138.685 20 22 1005 5 71
2014066S09138 2014 19 SP EA GILLIAN 2014-03-13 18:00:00 TS -14.3000 139.050 25 1004 bom main 226 215 O_____O_______ jtwc_sh SH172014 -14.3000 139.200 TD 25 1004 -1 1009 170 30 -14.3000 138.900 20 25 1004 2.00000 2.00000 3 45 45 5 62
2014066S09138 2014 19 SP EA GILLIAN 2014-03-13 21:00:00 TS -14.1513 139.269 main 239 227 P_____P_______ SH172014 -14.1075 139.380 TD 27 1002 -1 1009 177 30 -14.1950 139.157 20 27 1003 5 48
2014066S09138 2014 19 SP EA GILLIAN 2014-03-14 00:00:00 TS -13.9500 139.450 30 1002 bom main 215 205 O_____O_______ jtwc_sh SH172014 -13.9000 139.500 TD 30 1000 -1 1009 185 30 -14.0000 139.400 20 30 1002 2.50000 2.50000 3 45 45 5 34
2014066S09138 2014 19 SP EA GILLIAN 2014-03-14 03:00:00 TS -13.7112 139.569 main 206 206 P_____P_______ SH172014 -13.7500 139.572 TD 30 1000 -1 1008 175 30 -13.6725 139.565 20 30 1001 5 21
2014066S09138 2014 19 SP EA GILLIAN 2014-03-14 06:00:00 TS -13.4500 139.650 30 1001 bom main 202 196 O_____O_______ jtwc_sh SH172014 -13.6000 139.600 TD 30 1000 -1 1007 165 30 -13.3000 139.700 20 30 1001 2.50000 2.50000 3 45 45 5 20
2014066S09138 2014 19 SP EA GILLIAN 2014-03-14 09:00:00 TS -13.2188 139.755 main 196 195 P_____P_______ SH172014 -13.4300 139.615 TD 30 1000 -1 1007 157 30 -13.0075 139.895 20 30 1000 5 17
2014066S09138 2014 19 SP EA GILLIAN 2014-03-14 12:00:00 TS -12.9500 139.800 30 1000 bom main 195 195 O_____O_______ jtwc_sh SH172014 -13.2000 139.600 TD 30 1000 -1 1008 150 30 -12.7000 140.000 20 30 1000 3.00000 3.00000 3 45 45 6 358
2014066S09138 2014 19 SP EA GILLIAN 2014-03-14 15:00:00 TS -12.5862 139.749 main 206 206 P_____P_______ SH172014 -12.8800 139.573 TD 30 1000 -1 1008 155 30 -12.2924 139.925 20 30 1000 8 346
2014066S09138 2014 19 SP EA GILLIAN 2014-03-14 18:00:00 TS -12.2000 139.600 30 1001 bom main 221 221 O_____O_______ jtwc_sh SH172014 -12.5000 139.500 TD 30 1000 -1 1008 160 30 -11.9000 139.700 20 30 1001 2.50000 3.00000 3 45 45 9 332
2014066S09138 2014 19 SP EA GILLIAN 2014-03-14 21:00:00 TS -11.8376 139.346 main 256 241 P_____P_______ SH172014 -12.0700 139.357 TD 27 1002 -1 1008 165 30 -11.6052 139.335 20 27 1001 8 323
2014066S09138 2014 19 SP EA GILLIAN 2014-03-15 00:00:00 TS -11.5500 139.100 25 1002 bom main 245 235 O_____O_______ jtwc_sh SH172014 -11.7000 139.200 TD 25 1004 -1 1008 170 30 -11.4000 139.000 20 25 1002 2.00000 2.50000 3 45 45 6 323
2014066S09138 2014 19 SP EA GILLIAN 2014-03-15 03:00:00 TS -11.3875 139.003 main 239 239 P_____P_______ SH172014 -11.5050 139.085 TD 25 1004 -1 1007 165 30 -11.2699 138.920 20 25 1002 3 329
2014066S09138 2014 19 SP EA GILLIAN 2014-03-15 06:00:00 TS -11.3000 138.950 25 1002 bom main 244 235 O_____O_______ jtwc_sh SH172014 -11.4000 139.000 TD 25 1004 -1 1006 160 30 -11.2000 138.900 20 25 1002 2.00000 2.00000 3 45 45 2 318
2014066S09138 2014 19 SP EA GILLIAN 2014-03-15 09:00:00 TS -11.2250 138.854 main 240 231 P_____P_______ SH172014 -11.3000 138.958 TD 25 1004 -1 1006 160 30 -11.1500 138.750 20 25 1003 2 307
2014066S09138 2014 19 SP EA GILLIAN 2014-03-15 12:00:00 TS -11.1500 138.750 25 1004 bom main 237 228 O_____O_______ jtwc_sh SH172014 -11.2000 138.900 TD 25 1004 -1 1006 160 30 -11.1000 138.600 20 25 1004 1.50000 2.00000 7 45 45 3 314
2014066S09138 2014 19 SP EA GILLIAN 2014-03-15 15:00:00 TS -11.0362 138.658 main 235 227 P_____P_______ SH172014 -11.0575 138.773 TD 25 1004 -1 1006 160 30 -11.0150 138.543 20 25 1003 3 322
2014066S09138 2014 19 SP EA GILLIAN 2014-03-15 18:00:00 TS -10.9000 138.550 25 1003 bom main 234 226 O_____O_______ jtwc_sh SH172014 -10.9000 138.600 TD 25 1004 -1 1006 160 30 -10.9000 138.500 20 25 1003 1.50000 1.50000 7 45 45 4 322
2014066S09138 2014 19 SP EA GILLIAN 2014-03-15 21:00:00 TS -10.7425 138.423 main 235 228 P_____P_______ SH172014 -10.7425 138.415 TD 25 1005 -1 1008 155 35 -10.7425 138.430 20 25 1003 4 316
2014066S09138 2014 19 SP EA GILLIAN 2014-03-16 00:00:00 TS -10.6000 138.250 25 1003 bom main 237 229 O_____O_______ jtwc_sh SH172014 -10.6000 138.200 TD 25 1006 -1 1010 150 40 -10.6000 138.300 20 25 1003 1.50000 1.50000 7 45 45 5 301
2014066S09138 2014 19 SP EA GILLIAN 2014-03-16 03:00:00 TS -10.5100 138.023 main 229 219 P_____P_______ SH172014 -10.4850 137.958 TD 25 1005 -1 1008 150 40 -10.5350 138.088 20 25 1003 5 287
2014066S09138 2014 19 SP EA GILLIAN 2014-03-16 06:00:00 TS -10.4500 137.750 25 1004 bom main 224 209 O_____O_______ jtwc_sh SH172014 -10.4000 137.700 TD 25 1004 -1 1006 150 40 -10.5000 137.800 20 25 1004 1.50000 1.50000 7 45 45 6 282
2014066S09138 2014 19 SP EA GILLIAN 2014-03-16 09:00:00 TS -10.3962 137.461 main 209 194 P_____P_______ SH172014 -10.3350 137.450 TD 25 1004 -1 1006 150 40 -10.4575 137.473 20 25 1004 6 280
2014066S09138 2014 19 SP EA GILLIAN 2014-03-16 12:00:00 TS -10.3500 137.150 25 1005 bom main 205 193 O_____O_______ jtwc_sh SH172014 -10.3000 137.200 TD 25 1004 -1 1006 150 40 -10.4000 137.100 20 25 1005 1.50000 1.50000 7 45 45 6 279
2014066S09138 2014 19 SP EA GILLIAN 2014-03-16 15:00:00 TS -10.2925 136.821 main 193 190 P_____P_______ SH172014 -10.2924 136.965 TD 25 1004 -1 1007 150 40 -10.2926 136.677 20 25 1004 6 279
2014066S09138 2014 19 SP EA GILLIAN 2014-03-16 18:00:00 TS -10.2500 136.500 25 1004 bom main 201 201 O_____O_______ jtwc_sh SH172014 -10.3000 136.700 TD 25 1004 -1 1008 150 40 -10.2000 136.300 20 25 1004 2.00000 2.00000 7 45 45 6 275
2014066S09138 2014 19 SP EA GILLIAN 2014-03-16 21:00:00 TS -10.2424 136.240 main 204 204 P_____P_______ SH172014 -10.2999 136.395 TD 25 1004 -1 1008 150 40 -10.1849 136.085 20 25 1005 5 270
2014066S09138 2014 19 SP EA GILLIAN 2014-03-17 00:00:00 TS -10.2500 135.950 25 1006 bom main 208 201 O_____O_______ jtwc_sh SH172014 -10.3000 136.000 TD 25 1004 -1 1008 150 40 -10.2000 135.900 20 25 1006 2.00000 2.00000 7 45 45 6 268
2014066S09138 2014 19 SP EA GILLIAN 2014-03-17 03:00:00 TS -10.2609 135.611 main 201 201 P_____P_______ SH172014 -10.3148 135.518 TD 25 1004 -1 1007 150 40 -10.2071 135.705 20 25 1005 8 270
2014066S09138 2014 19 SP EA GILLIAN 2014-03-17 06:00:00 TS -10.2500 135.100 25 1004 bom main 215 187 O_____O_______ jtwc_sh SH172014 -10.3000 134.900 TD 25 1004 -1 1006 150 40 -10.2000 135.300 20 25 1004 2.00000 2.00000 3 45 45 13 273
2014066S09138 2014 19 SI WA GILLIAN 2014-03-17 09:00:00 TS -10.1943 134.257 main 187 155 P_____P_______ SH172014 -10.2154 134.085 TD 27 1002 -1 1006 150 40 -10.1732 134.430 20 27 1004 17 275
2014066S09138 2014 19 SI WA GILLIAN 2014-03-17 12:00:00 TS -10.1000 133.400 30 1004 bom main 155 147 O_____O_______ jtwc_sh SH172014 -10.1000 133.300 TD 30 1000 -1 1006 150 40 -10.1000 133.500 20 30 1004 2.50000 2.50000 45 45 14 279
2014066S09138 2014 19 SI WA GILLIAN 2014-03-17 15:00:00 TS -9.98198 132.899 main 149 145 P_____P_______ SH172014 -10.0070 132.828 TD 30 1000 -1 1006 150 40 -9.95693 132.970 20 30 1004 10 285
2014066S09138 2014 19 SI WA GILLIAN 2014-03-17 18:00:00 TS -9.85000 132.450 30 1004 bom main 158 147 O_____O_______ jtwc_sh SH172014 -9.90000 132.400 TD 30 1000 -1 1006 150 40 -9.80000 132.500 20 30 1004 2.00000 2.50000 3 45 45 11 285
2014066S09138 2014 19 SI WA GILLIAN 2014-03-17 21:00:00 TS -9.69873 131.812 main 169 169 P_____P_______ SH172014 -9.71994 131.795 TD 30 1000 -1 1006 150 40 -9.67752 131.830 20 30 1005 14 281
2014066S09138 2014 19 SI WA GILLIAN 2014-03-18 00:00:00 TS -9.60000 131.100 30 1006 bom main 179 179 O_____O_______ jtwc_sh SH172014 -9.60000 131.100 TD 30 1000 -1 1006 150 40 -9.60000 131.100 20 30 1006 2.00000 2.00000 3 45 45 14 273
2014066S09138 2014 19 SI WA GILLIAN 2014-03-18 03:00:00 TS -9.63091 130.416 main 190 182 P_____P_______ SH172014 -9.67716 130.403 TD 32 998 -1 1006 150 40 -9.58466 130.430 20 30 1004 14 266
2014066S09138 2014 19 SI WA GILLIAN 2014-03-18 06:00:00 TS -9.70000 129.650 30 1002 bom main 198 201 O_____O_______ jtwc_sh SH172014 -9.80000 129.600 TS 35 996 0 1007 150 40 -9.60000 129.700 20 30 1002 2.50000 2.50000 3 45 45 17 266
2014066S09138 2014 19 SI WA GILLIAN 2014-03-18 09:00:00 TS -9.74506 128.726 main 211 142 P_____P_______ SH172014 -9.84526 128.608 TS 35 996 0 1007 150 40 -9.64486 128.845 20 32 1003 19 270
2014066S09138 2014 19 SI WA GILLIAN 2014-03-18 12:00:00 TS -9.70000 127.750 35 1004 bom main 142 71 O_____O_______ jtwc_sh SH172014 -9.80000 127.600 TS 35 996 0 1008 150 40 -9.60000 127.900 20 35 1004 2.00000 2.50000 19 39 49 49 18 278
2014066S09138 2014 19 SI WA GILLIAN 2014-03-18 15:00:00 TS -9.48322 126.872 main 71 15 P_____P_______ SH172014 -9.63653 126.838 TS 32 998 -1 1008 150 40 -9.32990 126.907 20 32 1006 18 286
2014066S09138 2014 19 SI WA GILLIAN 2014-03-18 18:00:00 TS -9.20000 125.950 30 1009 bom main 15 0 O_____O_______ jtwc_sh SH172014 -9.40000 126.000 TD 30 1000 -1 1008 150 40 -9.00000 125.900 20 30 1009 1.50000 2.00000 119 1010 3 5 45 45 21 286
2014066S09138 2014 19 SI WA GILLIAN 2014-03-18 21:00:00 TS -8.93197 124.863 main 15 15 P_____P_______ SH172014 -9.09790 124.794 TD 30 1000 -1 1008 157 40 -8.76604 124.931 20 27 1009 119 1010 22 282
2014066S09138 2014 19 SI WA GILLIAN 2014-03-19 00:00:00 TS -8.75000 123.750 25 1009 bom main 64 22 O_____O_______ jtwc_sh SH172014 -8.90000 123.500 TD 30 1000 -1 1008 165 40 -8.60000 124.000 20 25 1009 1.50000 2.00000 119 1010 5 45 45 21 275
2014066S09138 2014 19 SI WA GILLIAN 2014-03-19 03:00:00 TS -8.76275 122.742 main 22 0 P_____P_______ SH172014 -9.01953 122.371 TD 30 1000 -1 1007 167 40 -8.50598 123.114 20 22 1009 119 1010 20 268
2014066S09138 2014 19 SI WA GILLIAN 2014-03-19 06:00:00 TS -8.82500 121.775 20 1009 bom main 0 0 O_____O_______ jtwc_sh SH172014 -9.20000 121.300 TD 30 1000 -1 1007 170 40 -8.45000 122.250 20 20 1009 1.50000 1.50000 119 1010 3 5 45 45 19 270
2014066S09138 2014 19 SI WA GILLIAN 2014-03-19 09:00:00 TS -8.77739 120.786 main 0 0 P_____P_______ SH172014 -9.17998 120.197 TD 27 1002 -1 1007 170 40 -8.37481 121.375 20 20 1009 119 1010 19 274
2014066S09138 2014 19 SI WA GILLIAN 2014-03-19 12:00:00 TS -8.70000 119.850 20 1009 bom main 0 0 O_____O_______ jtwc_sh SH172014 -9.10000 119.200 TD 25 1004 -1 1008 170 40 -8.30000 120.500 20 20 1009 1.50000 1.50000 119 1010 3 5 45 45 18 275
2014066S09138 2014 19 SI WA GILLIAN 2014-03-19 15:00:00 TS -8.63722 119.008 main 0 0 P_____P_______ SH172014 -9.04962 118.390 TD 25 1004 -1 1008 170 40 -8.22481 119.625 20 20 1009 119 1010 16 274
2014066S09138 2014 19 SI WA GILLIAN 2014-03-19 18:00:00 TS -8.57500 118.225 20 1009 bom main 0 0 O_____O_______ jtwc_sh SH172014 -9.00000 117.700 TD 25 1004 -1 1008 170 40 -8.15000 118.750 20 20 1009 1.50000 1.50000 119 1010 3 5 45 45 16 276
2014066S09138 2014 19 SI WA GILLIAN 2014-03-19 21:00:00 TS -8.48797 117.449 main 0 0 P_____P_______ SH172014 -8.94976 117.043 TD 22 1005 -1 1008 170 40 -8.02618 117.856 20 20 1009 119 1010 15 275
2014066S09138 2014 19 SI WA GILLIAN 2014-03-20 00:00:00 NR -8.45000 116.700 20 1009 bom main 0 0 O_____O_______ jtwc_sh SH172014 -8.90000 116.400 DB 20 1007 -3 1008 170 40 -8.00000 117.000 20 20 1009 1.50000 1.50000 119 1010 3 5 45 45 14 269
2014066S09138 2014 19 SI WA GILLIAN 2014-03-20 03:00:00 NR -8.50659 115.988 main 11 0 P_____P_______ SH172014 -8.81218 115.745 DB 20 1007 -3 1008 170 40 -8.20100 116.231 20 20 1009 119 1010 15 262
2014066S09138 2014 19 SI WA GILLIAN 2014-03-20 06:00:00 NR -8.65000 115.250 20 1009 bom main 0 0 O_____O_______ jtwc_sh SH172014 -8.80000 115.000 DB 20 1007 -3 1008 170 40 -8.50000 115.500 20 20 1009 1.50000 1.50000 119 1010 3 5 45 45 16 256
2014066S09138 2014 19 SI WA GILLIAN 2014-03-20 09:00:00 NR -8.88154 114.441 main 22 22 P_____P_______ SH172014 -8.98513 114.073 DB 20 1007 -3 1008 170 40 -8.77794 114.808 20 22 1008 119 1010 17 255
2014066S09138 2014 19 SI WA GILLIAN 2014-03-20 12:00:00 NR -9.10000 113.550 25 1008 bom main 60 60 O_____O_______ jtwc_sh SH172014 -9.20000 113.100 DB 20 1007 -3 1008 170 40 -9.00000 114.000 20 25 1008 1.50000 1.50000 119 1010 3 5 45 45 18 260
2014066S09138 2014 19 SI WA GILLIAN 2014-03-20 15:00:00 NR -9.19110 112.599 main 90 89 P_____P_______ SH172014 -9.29433 112.280 DB 22 1005 -3 1008 170 40 -9.08788 112.917 20 25 1008 119 1010 20 267
2014066S09138 2014 19 SI WA GILLIAN 2014-03-20 18:00:00 TS -9.21000 111.560 25 1008 bom main 90 90 O_____O_______ jtwc_sh SH172014 -9.30000 111.400 TD 25 1004 -1 1008 170 40 -9.12000 111.720 20 25 1008 1.50000 1.50000 119 1010 3 5 45 45 22 270
2014066S09138 2014 19 SI WA GILLIAN 2014-03-20 21:00:00 TS -9.18061 110.356 main 116 116 P_____P_______ SH172014 -9.19327 110.197 TD 25 1004 -1 1008 170 40 -9.16794 110.515 20 27 1006 149 1010 23 271
2014066S09138 2014 19 SI WA GILLIAN 2014-03-21 00:00:00 TS -9.17500 109.275 30 1005 bom main 157 156 O_____O_______ jtwc_sh SH172014 -9.10000 109.100 TD 25 1004 -1 1008 170 40 -9.25000 109.450 20 30 1005 2.00000 2.00000 179 1010 3 5 45 45 17 266
2014066S09138 2014 19 SI WA GILLIAN 2014-03-21 03:00:00 TS -9.29805 108.591 main 169 168 P_____P_______ SH172014 -9.16184 108.503 TD 27 1002 -1 1007 160 40 -9.43426 108.680 20 30 1004 179 1010 12 257
2014066S09138 2014 19 SI WA GILLIAN 2014-03-21 06:00:00 TS -9.45000 108.100 30 1004 bom main 182 193 O_____O_______ jtwc_sh SH172014 -9.30000 108.100 TD 30 1000 -1 1006 150 40 -9.60000 108.100 20 30 1004 2.50000 2.50000 179 1010 3 5 45 45 10 257
2014066S09138 2014 19 SI WA GILLIAN 2014-03-21 09:00:00 TS -9.52299 107.587 main 202 202 P_____P_______ SH172014 -9.44243 107.600 TD 35 996 0 22 22 22 22 1006 150 40 -9.60355 107.574 20 32 1002 179 1010 10 261
2014066S09138 2014 19 SI WA GILLIAN 2014-03-21 12:00:00 TS -9.60000 107.100 35 1001 bom main 226 226 O_____O_______ jtwc_sh SH172014 -9.60000 107.100 TS 40 993 0 45 45 45 45 1006 150 40 -9.60000 107.100 30 35 1001 3.00000 3.00000 30 30 39 59 30 179 1010 3 5 49 49 10 257
2014066S09138 2014 19 SI WA GILLIAN 2014-03-21 15:00:00 TS -9.74891 106.573 main 257 257 P_____P_______ SH172014 -9.75754 106.570 TS 42 991 0 45 47 47 45 1006 150 40 -9.74027 106.576 30 37 999 24 30 39 49 30 179 1010 10 253
2014066S09138 2014 19 SI WA GILLIAN 2014-03-21 18:00:00 TS -9.90000 106.100 40 998 bom main 282 282 O_____O_______ jtwc_sh SH172014 -9.90000 106.100 TS 45 989 0 45 50 50 45 1006 150 40 -9.90000 106.100 30 40 998 3.00000 3.00000 19 30 39 39 30 179 1010 5 55 55 9 255
2014066S09138 2014 19 SI WA GILLIAN 2014-03-21 21:00:00 TS -9.97680 105.732 main 301 301 P_____P_______ SH172014 -9.99241 105.755 TS 47 987 0 50 55 55 47 1006 150 40 -9.96119 105.709 30 42 995 19 30 39 49 30 149 1009 7 255
2014066S09138 2014 19 SI WA GILLIAN 2014-03-22 00:00:00 TS -10.0650 105.460 45 993 bom main 318 318 O_____O_______ jtwc_sh SH172014 -10.1000 105.500 TS 50 985 0 55 60 60 50 1006 150 40 -10.0300 105.420 30 45 993 3.00000 3.00000 19 30 39 59 30 119 1008 3 5 64 64 5 245
2014066S09138 2014 19 SI WA GILLIAN 2014-03-22 03:00:00 TS -10.1985 105.259 main 336 336 P_____P_______ SH172014 -10.2475 105.285 TS 52 983 0 57 65 65 55 1006 165 30 -10.1494 105.233 30 47 990 17 30 39 59 30 119 1007 5 223
2014066S09138 2014 19 SI WA GILLIAN 2014-03-22 06:00:00 TS -10.4400 105.100 50 987 bom main 365 365 O_____O_______ jtwc_sh SH172014 -10.5000 105.100 TS 55 982 0 60 70 70 60 25 25 25 25 1006 180 20 -10.3800 105.100 30 50 987 3.50000 3.50000 15 30 39 59 30 119 1006 3 5 69 69 7 208
2014066S09138 2014 19 SI WA GILLIAN 2014-03-22 09:00:00 TS -10.8409 104.919 main 415 415 P_____P_______ SH172014 -10.9125 104.893 TS 62 976 0 65 72 72 65 27 27 27 27 1006 180 17 -10.7692 104.944 30 55 984 15 37 49 59 34 119 1006 10 202
2014066S09138 2014 19 SI WA GILLIAN 2014-03-22 12:00:00 TS -11.3250 104.740 60 981 bom main 475 475 O_____O_______ jtwc_sh SH172014 -11.4000 104.700 TY 70 970 1 70 75 75 70 30 30 30 30 10 10 10 10 1006 180 15 20 -11.2500 104.780 30 60 981 4.00000 4.00000 15 44 59 59 39 119 1006 4 5 84 84 10 200
2014066S09138 2014 19 SI WA GILLIAN 2014-03-22 15:00:00 TS -11.8016 104.569 main 530 530 P_____P_______ SH172014 -11.8650 104.550 TY 80 963 1 82 90 87 80 42 45 42 40 17 20 20 17 1006 200 15 -11.7383 104.588 30 65 978 15 134 1007 10 200
2014066S09138 2014 19 SI WA GILLIAN 2014-03-22 18:00:00 TS -12.2550 104.400 70 976 bom main 591 591 O_____O_______ jtwc_sh SH172014 -12.3000 104.400 TY 90 956 2 95 105 100 90 55 60 55 50 25 30 30 25 1006 220 15 20 -12.2100 104.400 40 70 976 5.00000 5.00000 15 150 1008 9 4 5 99 99 9 202
2014066S09138 2014 19 SI WA GILLIAN 2014-03-22 21:00:00 TS -12.6286 104.229 main 630 630 P_____P_______ SH172014 -12.6575 104.200 TY 97 950 3 102 112 107 97 62 67 62 57 30 35 35 30 1006 220 15 -12.5997 104.257 40 80 967 15 164 1009 8 205
2014066S09138 2014 19 SI WA GILLIAN 2014-03-23 00:00:00 TS -12.9850 104.055 90 959 bom main 675 675 O_____O_______ jtwc_sh SH172014 -13.0000 104.000 TY 105 944 3 110 120 115 105 70 75 70 65 35 40 40 35 1006 220 15 20 -12.9700 104.110 40 90 959 5.50000 5.50000 15 179 1010 9 4 5 124 124 8 205
2014066S09138 2014 19 SI WA GILLIAN 2014-03-23 03:00:00 TS -13.3888 103.855 main 725 725 P_____P_______ SH172014 -13.3925 103.820 TY 110 940 3 110 120 115 105 67 72 70 65 35 40 40 35 1006 215 13 -13.3850 103.891 40 92 955 15 149 1008 9 203
2014066S09138 2014 19 SI WA GILLIAN 2014-03-23 06:00:00 TS -13.8000 103.700 95 951 bom main 775 775 O_____O_______ jtwc_sh SH172014 -13.8000 103.700 TY 115 937 4 110 120 115 105 65 70 70 65 35 40 40 35 1007 210 12 15 -13.8000 103.700 40 95 951 5.50000 5.50000 15 119 1006 9 4 5 135 135 8 194
2014066S09138 2014 19 SI WA GILLIAN 2014-03-23 09:00:00 TS -14.1892 103.652 main 816 816 P_____P_______ SH172014 -14.2000 103.685 TY 120 933 4 110 120 115 105 65 70 70 65 35 40 40 35 1007 205 12 -14.1785 103.619 40 102 942 12 119 1006 8 184
2014066S09138 2014 19 SI WA GILLIAN 2014-03-23 12:00:00 TS -14.5800 103.650 110 934 bom main 858 858 O_____O_______ jtwc_sh SH172014 -14.6000 103.700 TY 125 929 4 110 120 115 105 65 70 70 65 35 40 40 35 1007 200 12 15 -14.5600 103.600 40 110 934 6.50000 6.50000 10 59 90 90 59 119 1006 9 4 5 154 154 8 183
2014066S09138 2014 19 SI WA GILLIAN 2014-03-23 15:00:00 TS -14.9843 103.621 main 904 904 P_____P_______ SH172014 -14.9925 103.650 TY 132 923 4 115 130 125 115 75 82 80 72 42 50 47 42 1007 215 11 -14.9760 103.592 40 115 930 10 59 90 90 59 119 1008 8 183
2014066S09138 2014 19 SI WA GILLIAN 2014-03-23 18:00:00 TS -15.4050 103.600 120 927 bom main 946 946 O_____O_______ jtwc_sh SH172014 -15.4000 103.600 ST 140 918 5 120 140 135 125 85 95 90 80 50 60 55 50 1007 230 10 10 -15.4100 103.600 40 120 927 7.00000 7.00000 10 59 90 90 59 119 1010 7 4 5 170 170 9 182
2014066S09138 2014 19 SI WA GILLIAN 2014-03-23 21:00:00 TS -15.8507 103.594 main 999 999 P_____P_______ SH172014 -15.8425 103.592 ST 140 918 5 115 135 130 120 85 95 90 80 50 60 55 50 1007 225 10 -15.8590 103.596 40 117 930 10 59 90 90 59 149 1010 9 0
2014066S09138 2014 19 SI WA GILLIAN 2014-03-24 00:00:00 TS -16.2950 103.600 115 933 bom main 1042 1042 O_____O_______ jtwc_sh SH172014 -16.3000 103.600 ST 140 918 5 110 130 125 115 85 95 90 80 50 60 55 50 1007 220 10 -16.2900 103.600 40 115 933 5.50000 6.50000 10 59 90 90 59 179 1010 4 5 159 159 9 0
2014066S09138 2014 19 SI WA GILLIAN 2014-03-24 03:00:00 TS -16.7167 103.605 main 1084 1084 P_____P_______ SH172014 -16.7650 103.585 ST 132 923 4 110 125 117 107 82 90 85 77 47 52 50 47 1007 210 10 -16.6685 103.624 40 110 936 12 59 90 90 59 149 1008 8 178
2014066S09138 2014 19 SI WA GILLIAN 2014-03-24 06:00:00 TS -17.1100 103.630 105 940 bom main 1127 1127 O_____O_______ jtwc_sh SH172014 -17.2000 103.600 TY 125 929 4 110 120 110 100 80 85 80 75 45 45 45 45 1007 200 10 -17.0200 103.660 40 105 940 5.50000 6.00000 15 59 90 90 59 119 1006 4 5 145 145 8 174
2014066S09138 2014 19 SI WA GILLIAN 2014-03-24 09:00:00 TS -17.4720 103.698 main 1168 1154 P_____P_______ SH172014 -17.5725 103.700 TY 115 936 4 105 115 105 95 75 80 75 70 42 42 42 42 1007 200 15 -17.3715 103.696 40 97 949 19 59 90 90 59 119 1008 7 169
2014066S09138 2014 19 SI WA GILLIAN 2014-03-24 12:00:00 TS -17.8100 103.770 90 959 bom main 1154 1138 O_____O_______ jtwc_sh SH172014 -17.9000 103.800 TY 105 944 3 100 110 100 90 70 75 70 65 40 40 40 40 1007 200 20 -17.7200 103.740 40 90 959 5.00000 5.50000 24 59 90 90 59 24 39 39 24 119 1010 3 5 124 124 7 173
2014066S09138 2014 19 SI WA GILLIAN 2014-03-24 15:00:00 TS -18.1412 103.792 main 1138 1123 P_____P_______ SH172014 -18.2150 103.808 TY 97 950 3 100 110 100 90 70 75 70 65 40 40 40 40 1007 200 20 -18.0675 103.777 40 85 962 27 59 90 90 59 27 39 39 27 119 1010 7 175
2014066S09138 2014 19 SI WA GILLIAN 2014-03-24 18:00:00 TS -18.4650 103.825 80 965 bom main 1118 1094 O_____O_______ jtwc_sh SH172014 -18.5000 103.800 TY 90 956 2 100 110 100 90 70 75 70 65 40 40 40 40 1007 200 20 -18.4300 103.850 40 80 965 4.50000 5.00000 30 59 90 90 59 30 39 39 30 119 1010 3 5 110 110 7 167
2014066S09138 2014 19 SI WA GILLIAN 2014-03-24 21:00:00 TS -18.7840 103.944 main 1094 1071 P_____P_______ SH172014 -18.7350 103.857 TY 82 961 1 100 110 100 90 70 75 70 65 40 40 40 40 1007 200 20 -18.8331 104.031 40 67 975 32 59 104 104 59 39 39 119 1010 7 163
2014066S09138 2014 19 SI WA GILLIAN 2014-03-25 00:00:00 TS -19.1150 104.035 55 986 bom main 1071 1054 O_____O_______ jtwc_sh SH172014 -19.0000 103.900 TY 75 967 1 100 110 100 90 70 75 70 65 40 40 40 40 1008 200 20 -19.2300 104.170 30 55 986 3.50000 4.00000 35 59 119 119 59 39 39 119 1010 3 5 75 75 7 176
2014066S09138 2014 19 SI WA GILLIAN 2014-03-25 03:00:00 TS -19.4877 104.003 main 1054 1046 P_____P_______ SH172014 -19.3925 103.865 TY 67 972 1 95 112 102 87 62 70 65 57 20 20 20 20 1008 192 25 -19.5829 104.141 30 52 987 42 44 119 109 44 47 119 1010 8 190
2014066S09138 2014 19 SI WA GILLIAN 2014-03-25 06:00:00 TS -19.8500 103.900 50 989 bom main 1052 1045 O_____O_______ jtwc_sh SH172014 -19.8000 103.800 TS 60 978 0 90 115 105 85 55 65 60 50 1008 185 30 -19.9000 104.000 30 50 989 3.00000 3.50000 50 30 119 99 30 55 119 1010 3 5 69 69 7 198
2014066S09138 2014 19 SI WA GILLIAN 2014-03-25 09:00:00 TS -20.1472 103.772 main 1052 1048 P_____P_______ SH172014 -20.1150 103.757 TS 55 981 0 90 115 105 85 1008 185 30 -20.1793 103.786 30 42 994 50 30 119 79 30 119 1010 6 203
2014066S09138 2014 19 SI WA GILLIAN 2014-03-25 12:00:00 TS -20.4300 103.640 35 1000 bom main 1062 1054 O_____O_______ jtwc_sh SH172014 -20.4000 103.700 TS 50 985 0 90 115 105 85 1008 185 30 -20.4600 103.580 21 35 1000 2.50000 3.00000 50 30 119 59 30 119 1010 3 5 49 49 6 196
2014066S09138 2014 19 SI WA GILLIAN 2014-03-25 15:00:00 TS -20.7386 103.587 main 1054 1049 P_____P_______ SH172014 -20.6924 103.637 TS 45 989 0 90 107 100 85 1008 185 30 -20.7849 103.536 21 32 1001 119 1010 7 193
2014066S09138 2014 19 SI WA GILLIAN 2014-03-25 18:00:00 TS -21.0700 103.485 30 1003 bom main 1055 1055 O_____O_______ jtwc_sh SH172014 -21.0000 103.500 TS 40 993 0 90 100 95 85 1008 185 30 -21.1400 103.470 20 30 1003 2.00000 2.50000 119 1010 3 5 45 45 8 203
2014066S09138 2014 19 SI WA GILLIAN 2014-03-25 21:00:00 TS -21.4942 103.249 main 1078 1076 P_____P_______ SH172014 -21.3949 103.253 TS 37 996 0 90 100 95 85 1008 187 40 -21.5934 103.245 20 30 1003 119 1010 9 217
2014066S09138 2014 19 SI WA GILLIAN 2014-03-26 00:00:00 TS -21.8000 102.900 30 1003 bom main 1104 1104 O_____O_______ jtwc_sh SH172014 -21.7000 102.900 TS 35 999 0 90 100 95 85 1009 190 50 -21.9000 102.900 20 30 1003 2.00000 2.50000 119 1010 3 5 45 45 8 248
2014066S09138 2014 19 SI WA GILLIAN 2014-03-26 03:00:00 TS -21.7911 102.462 main 1145 1145 P_____P_______ SH172014 -21.7601 102.457 TS 32 999 -1 1008 190 50 -21.8221 102.466 20 30 1003 104 1010 8 280
2014066S09138 2014 19 SI WA GILLIAN 2014-03-26 06:00:00 TS -21.6500 102.000 30 1003 bom main 1199 1198 O_____O_______ jtwc_sh SH172014 -21.7000 102.000 TD 30 1000 -1 1008 190 50 -21.6000 102.000 20 30 1003 90 1010 3 5 45 45 8 286
2014066S09138 2014 19 SI WA GILLIAN 2014-03-26 09:00:00 TS -21.5729 101.661 main 1230 1230 P_____P_______ SH172014 -21.6645 101.680 TD 27 1002 -1 1008 190 50 -21.4814 101.643 20 30 1003 7 282
2014066S09138 2014 19 SI WA GILLIAN 2014-03-26 12:00:00 TS -21.5000 101.255 30 1003 bom main 1272 1272 O_____O_______ jtwc_sh SH172014 -21.6000 101.300 TD 25 1004 -1 1008 190 50 -21.4000 101.210 50 30 1003 3 5 45 45 10 278
2014066S09138 2014 19 SI WA GILLIAN 2014-03-26 15:00:00 TS -21.4361 100.639 main 1346 1346 P_____P_______ SH172014 -21.5074 100.717 TD 27 1002 -1 1008 190 50 -21.3649 100.560 50 30 1003 13 276
2014066S09138 2014 19 SI WA GILLIAN 2014-03-26 18:00:00 TS -21.3700 99.9050 30 1004 bom main 1417 1417 O_____O_______ jtwc_sh SH172014 -21.4000 100.000 TD 30 1000 -1 1008 190 50 -21.3400 99.8100 50 30 1004 3 5 45 45 14 276
2014066S09138 2014 19 SI WA GILLIAN 2014-03-26 21:00:00 TS -21.2886 99.1474 main 1501 1501 P_____P_______ SH172014 -21.2926 99.2074 TD 27 1002 -1 1008 190 50 -21.2845 99.0873 50 30 1004 14 277
2014066S09138 2014 19 SI WA GILLIAN 2014-03-27 00:00:00 TS -21.2043 98.3829 30 1004 bom main 1574 1574 O_____O_______ jtwc_sh SH172014 -21.2000 98.4000 TD 25 1004 -1 1008 190 50 -21.2100 98.3600 50 30 1004 3 5 45 45 14 277
2014066S09138 2014 19 SI WA GILLIAN 2014-03-27 03:00:00 TS -21.1297 97.6656 main 1648 1648 P_____P_______ SH172014 -21.1346 97.6776 TD 25 1004 -1 1008 185 50 -21.1198 97.6416 50 27 1005 13 275
2014066S09138 2014 19 SI WA GILLIAN 2014-03-27 06:00:00 TS -21.0840 96.9860 25 1007 bom main 1719 1719 O_____O_______ jtwc_sh SH172014 -21.1000 97.0000 TD 25 1004 -1 1008 180 50 -21.0200 96.9300 50 25 1007 3 5 45 45 12 272
2014066S09138 2014 19 SI WA GILLIAN 2014-03-27 09:00:00 TS -21.0843 96.3725 main 1779 1779 P_____________ SH172014 -21.0843 96.3725 TD 25 1004 -1 1008 180 50 50 12 269
2014066S09138 2014 19 SI WA GILLIAN 2014-03-27 12:00:00 TS -21.1000 95.7000 main 1849 1849 O_____________ jtwc_sh SH172014 -21.1000 95.7000 TD 25 1004 -1 1008 180 50 14 267
2014066S09138 2014 19 SI WA GILLIAN 2014-03-27 15:00:00 TS -21.1505 94.8427 main 1937 1937 P_____________ SH172014 -21.1505 94.8427 TD 22 1005 -1 1008 180 50 16 266
2014066S09138 2014 19 SI WA GILLIAN 2014-03-27 18:00:00 NR -21.2000 94.0000 main 2012 2012 O_____________ jtwc_sh SH172014 -21.2000 94.0000 DB 20 1007 -3 1008 180 50 14 268
2014066S09138 2014 19 SI WA GILLIAN 2014-03-27 21:00:00 NR -21.2070 93.3474 main 2058 2058 P_____________ SH172014 -21.2070 93.3474 DB 20 1007 -3 1008 180 50 11 270
2014066S09138 2014 19 SI WA GILLIAN 2014-03-28 00:00:00 NR -21.2000 92.8000 main 2092 2092 O_____________ jtwc_sh SH172014 -21.2000 92.8000 DB 20 1007 -3 1008 180 50 10 270
2014066S09138 2014 19 SI WA GILLIAN 2014-03-28 03:00:00 NR -21.1994 92.3150 main 2127 2127 P_____________ SH172014 -21.1994 92.3150 DB 20 1007 -3 1008 180 50 9 270
2014066S09138 2014 19 SI WA GILLIAN 2014-03-28 06:00:00 NR -21.2000 91.8000 main 2162 2162 O_____________ jtwc_sh SH172014 -21.2000 91.8000 DB 20 1007 -3 1008 180 50 11 271
2014066S09138 2014 19 SI WA GILLIAN 2014-03-28 09:00:00 NR -21.1770 91.1671 main 2206 2206 P_____________ SH172014 -21.1770 91.1671 DB 20 1007 -3 1008 180 50 13 270
2014066S09138 2014 19 SI WA GILLIAN 2014-03-28 12:00:00 NR -21.2000 90.4000 main 2265 2265 O_____________ jtwc_sh SH172014 -21.2000 90.4000 DB 20 1007 -3 1008 180 50 16 265
2014066S09138 2014 19 SI MM GILLIAN 2014-03-28 15:00:00 NR -21.3214 89.4908 main 2342 2342 P_____________ SH172014 -21.3214 89.4908 DB 20 1007 -3 1008 180 50 18 260
2014066S09138 2014 19 SI MM GILLIAN 2014-03-28 18:00:00 NR -21.5000 88.5000 main 2435 O_____________ jtwc_sh SH172014 -21.5000 88.5000 DB 20 1007 -3 1008 180 50 19 259

デジタル台風データ・検索

IBTrACS Databaseについて

本データベースは、米国NOAAが公開する1842年以降の世界の熱帯低気圧のベストトラックデータアーカイブInternational Best Track Archive for Climate Stewardship (IBTrACS)を、ウェブで閲覧しやすい形式に変換したものです。

最終更新日:2021-12-06